Time;durP1;ratioP1;P1;durP2;ratioP2;P2;SDS_P1;SDS_P2;PMS_P1;PMS_P2;Temp;Humidity;BMP_temperature;BMP_pressure;BME280_temperature;BME280_humidity;BME280_pressure;Samples;Min_cycle;Max_cycle;Signal;HPM_P1;HPM_P2
2023/02/25 00:01:07;;;;;;;1.83;1.00;;;4.60;99.90;;;;;;5001952;28;20460;-71
2023/02/25 00:03:34;;;;;;;7.23;1.43;;;4.60;99.90;;;;;;5004027;28;20518;-70
2023/02/25 00:06:02;;;;;;;9.30;2.30;;;4.60;99.90;;;;;;4995282;28;20617;-71
2023/02/25 00:08:29;;;;;;;1.30;1.20;;;4.60;99.90;;;;;;4998892;28;20440;-72
2023/02/25 00:11:00;;;;;;;1.70;1.20;;;4.60;99.90;;;;;;4997314;28;20532;-70
2023/02/25 00:13:27;;;;;;;1.67;1.43;;;4.60;99.90;;;;;;5002563;28;20455;-70
2023/02/25 00:15:57;;;;;;;1.60;1.40;;;4.60;99.90;;;;;;4998031;28;20436;-70
2023/02/25 00:18:25;;;;;;;12.43;1.50;;;4.70;99.90;;;;;;5005413;28;20481;-71
2023/02/25 00:20:52;;;;;;;6.90;1.83;;;4.70;99.90;;;;;;5001901;28;20590;-71
2023/02/25 00:23:19;;;;;;;3.83;1.53;;;4.70;99.90;;;;;;5001253;28;20440;-70
2023/02/25 00:25:47;;;;;;;7.30;1.43;;;4.70;99.90;;;;;;4997219;28;20499;-70
2023/02/25 00:28:14;;;;;;;4.90;1.50;;;4.70;99.90;;;;;;5001200;28;21007;-69
2023/02/25 00:30:42;;;;;;;1.10;0.97;;;4.60;99.90;;;;;;4997157;28;20436;-70
2023/02/25 00:33:09;;;;;;;4.77;1.20;;;4.70;99.90;;;;;;5002312;28;20553;-70
2023/02/25 00:35:40;;;;;;;4.70;1.43;;;4.70;99.90;;;;;;5002798;28;20932;-70
2023/02/25 00:38:07;;;;;;;4.93;2.10;;;4.70;99.90;;;;;;5005613;28;20470;-70
2023/02/25 00:40:38;;;;;;;2.50;1.17;;;4.80;99.90;;;;;;5003015;28;20456;-69
2023/02/25 00:43:05;;;;;;;1.87;1.27;;;4.60;99.90;;;;;;5002422;28;20499;-70
2023/02/25 00:45:33;;;;;;;3.63;2.30;;;4.60;99.90;;;;;;5000301;28;20480;-70
2023/02/25 00:48:00;;;;;;;3.10;1.27;;;4.60;99.90;;;;;;4998812;28;20543;-70
2023/02/25 00:50:27;;;;;;;1.70;1.03;;;4.70;99.90;;;;;;5002386;28;20546;-70
2023/02/25 00:52:55;;;;;;;4.20;1.70;;;4.80;99.90;;;;;;5006660;28;20532;-70
2023/02/25 00:55:22;;;;;;;4.97;2.20;;;4.80;99.90;;;;;;5010949;28;20441;-72
2023/02/25 00:57:49;;;;;;;7.23;1.20;;;4.70;99.90;;;;;;5001678;28;20463;-72
2023/02/25 01:00:16;;;;;;;9.00;1.70;;;4.70;99.90;;;;;;5001493;28;20459;-72
2023/02/25 01:02:44;;;;;;;3.73;2.07;;;4.70;99.90;;;;;;5004088;28;20549;-72
2023/02/25 01:05:13;;;;;;;3.03;1.70;;;4.80;99.90;;;;;;4974020;28;20466;-72
2023/02/25 01:07:40;;;;;;;3.63;1.33;;;4.70;99.90;;;;;;5002498;28;20491;-73
2023/02/25 01:10:10;;;;;;;14.13;1.23;;;4.80;99.90;;;;;;5004076;28;20547;-71
2023/02/25 01:12:37;;;;;;;5.30;1.87;;;4.70;99.90;;;;;;5001988;28;20452;-71
2023/02/25 01:15:05;;;;;;;4.63;1.77;;;4.80;99.90;;;;;;4998130;28;20473;-70
2023/02/25 01:17:32;;;;;;;4.10;1.10;;;4.70;99.90;;;;;;5002841;28;21010;-71
2023/02/25 01:19:59;;;;;;;5.53;1.20;;;4.70;99.90;;;;;;5009446;28;20461;-70
2023/02/25 01:22:26;;;;;;;6.70;1.50;;;4.70;99.90;;;;;;5023474;28;20438;-71
2023/02/25 01:24:55;;;;;;;2.83;0.90;;;4.70;99.90;;;;;;5017841;28;20464;-71
2023/02/25 01:27:23;;;;;;;2.33;1.70;;;4.70;99.90;;;;;;5016429;28;20476;-71
2023/02/25 01:29:50;;;;;;;4.03;0.80;;;4.80;99.90;;;;;;5003557;28;20441;-71
2023/02/25 01:32:17;;;;;;;6.83;1.30;;;4.70;99.90;;;;;;5003362;28;20461;-71
2023/02/25 01:34:44;;;;;;;7.50;1.57;;;4.80;99.90;;;;;;5001156;28;20891;-71
2023/02/25 01:37:11;;;;;;;0.90;0.70;;;4.80;99.90;;;;;;5002541;28;20576;-71
2023/02/25 01:39:39;;;;;;;1.53;1.33;;;4.80;99.90;;;;;;5003182;28;20439;-71
2023/02/25 01:42:13;;;;;;;3.90;1.40;;;4.80;99.90;;;;;;4999831;28;20554;-72
2023/02/25 01:45:14;;;;;;;4.73;1.93;;;4.90;99.90;;;;;;4997574;28;20461;-71
2023/02/25 01:47:42;;;;;;;4.20;2.20;;;4.90;99.90;;;;;;4999936;28;20480;-71
2023/02/25 01:50:12;;;;;;;1.37;1.00;;;4.90;99.90;;;;;;4988094;28;20451;-70
2023/02/25 01:52:41;;;;;;;3.03;1.40;;;4.90;99.90;;;;;;4999889;28;20465;-71
2023/02/25 01:55:10;;;;;;;1.60;1.20;;;4.90;99.90;;;;;;5000438;28;20440;-71
2023/02/25 01:57:37;;;;;;;1.27;1.17;;;4.90;99.90;;;;;;5002889;28;20462;-71
2023/02/25 02:00:14;;;;;;;1.63;1.07;;;4.80;99.90;;;;;;5002707;28;21188;-71
2023/02/25 02:02:44;;;;;;;7.13;1.90;;;4.70;99.90;;;;;;5002444;28;20955;-71
2023/02/25 02:05:13;;;;;;;2.00;1.13;;;4.70;99.90;;;;;;5004858;28;20468;-71
2023/02/25 02:07:40;;;;;;;8.23;1.80;;;4.60;99.90;;;;;;5001555;28;20456;-71
2023/02/25 02:10:10;;;;;;;2.80;1.20;;;4.70;99.90;;;;;;4997765;28;20920;-71
2023/02/25 02:12:42;;;;;;;10.23;1.77;;;4.70;99.90;;;;;;4998939;28;20459;-71
2023/02/25 02:15:12;;;;;;;8.93;1.47;;;4.70;99.90;;;;;;4997739;28;20877;-72
2023/02/25 02:17:48;;;;;;;5.33;2.20;;;4.60;99.90;;;;;;5000831;28;20451;-71
2023/02/25 02:20:19;;;;;;;4.20;1.60;;;4.60;99.90;;;;;;5003061;28;20496;-71
2023/02/25 02:23:10;;;;;;;6.97;1.40;;;4.60;99.90;;;;;;5006024;28;20455;-71
2023/02/25 02:26:09;;;;;;;2.20;1.40;;;4.60;99.90;;;;;;5000121;28;20537;-72
2023/02/25 02:29:18;;;;;;;3.00;1.87;;;4.70;99.90;;;;;;5002313;28;20459;-71
2023/02/25 02:32:01;;;;;;;4.10;1.80;;;4.70;99.90;;;;;;4992213;28;20432;-71
2023/02/25 02:34:39;;;;;;;7.13;1.87;;;4.70;99.90;;;;;;5002900;28;20549;-71
2023/02/25 02:37:19;;;;;;;2.87;1.53;;;4.60;99.90;;;;;;4999324;28;20984;-70
2023/02/25 02:39:57;;;;;;;1.13;0.90;;;4.50;99.90;;;;;;4999523;28;20531;-71
2023/02/25 02:42:33;;;;;;;3.60;3.30;;;4.50;99.90;;;;;;4994481;28;20437;-69
2023/02/25 02:45:10;;;;;;;1.73;1.20;;;4.50;99.90;;;;;;4999490;28;20435;-70
2023/02/25 02:47:40;;;;;;;3.03;2.47;;;4.50;99.90;;;;;;4998381;28;20488;-71
2023/02/25 02:50:14;;;;;;;2.23;1.10;;;4.40;99.90;;;;;;4999414;28;20428;-70
2023/02/25 02:52:43;;;;;;;1.00;0.80;;;4.50;99.90;;;;;;5001261;28;20456;-71
2023/02/25 02:55:21;;;;;;;1.00;0.80;;;4.40;99.90;;;;;;5001852;28;20521;-71
2023/02/25 02:57:51;;;;;;;3.97;2.00;;;4.50;99.90;;;;;;4996451;28;20591;-71
2023/02/25 03:00:24;;;;;;;4.20;1.90;;;4.50;99.90;;;;;;5002789;28;20437;-71
2023/02/25 03:02:58;;;;;;;2.23;1.37;;;4.50;99.90;;;;;;5001959;28;20437;-70
2023/02/25 03:05:29;;;;;;;4.17;1.87;;;4.40;99.90;;;;;;4999226;28;20439;-71
2023/02/25 03:08:01;;;;;;;1.37;1.27;;;4.50;99.90;;;;;;5000859;28;20556;-71
2023/02/25 03:10:28;;;;;;;2.50;1.97;;;4.40;99.90;;;;;;4996654;28;21072;-71
2023/02/25 03:12:55;;;;;;;3.37;2.10;;;4.60;99.90;;;;;;4999677;28;20428;-71
2023/02/25 03:15:24;;;;;;;2.43;2.00;;;4.70;99.90;;;;;;4997383;28;20436;-70
2023/02/25 03:17:56;;;;;;;4.87;1.93;;;4.70;99.90;;;;;;4996070;28;20829;-70
2023/02/25 03:20:28;;;;;;;1.53;1.40;;;4.70;99.90;;;;;;4994623;28;20443;-71
2023/02/25 03:23:01;;;;;;;7.20;1.63;;;4.60;99.90;;;;;;4999157;28;20899;-71
2023/02/25 03:25:32;;;;;;;1.33;1.23;;;4.60;99.90;;;;;;4998137;28;20479;-71
2023/02/25 03:28:04;;;;;;;5.70;1.30;;;4.60;99.90;;;;;;4984216;28;20448;-70
2023/02/25 03:30:36;;;;;;;6.50;2.43;;;4.60;99.90;;;;;;4996647;28;20542;-70
2023/02/25 03:33:13;;;;;;;1.13;0.90;;;4.70;99.90;;;;;;5003794;28;20438;-70
2023/02/25 03:35:42;;;;;;;3.70;2.00;;;4.60;99.90;;;;;;4996191;28;20459;-71
2023/02/25 03:38:15;;;;;;;6.20;3.47;;;4.60;99.90;;;;;;5008394;28;21073;-70
2023/02/25 03:40:43;;;;;;;0.90;0.70;;;4.60;99.90;;;;;;4998121;28;20875;-70
2023/02/25 03:43:15;;;;;;;1.73;1.40;;;4.60;99.90;;;;;;5002439;28;20448;-71
2023/02/25 03:45:45;;;;;;;2.07;1.33;;;4.60;99.90;;;;;;5003320;28;20463;-71
2023/02/25 03:48:16;;;;;;;5.90;1.50;;;4.70;99.90;;;;;;5000677;28;20519;-70
2023/02/25 03:50:48;;;;;;;1.67;1.57;;;4.60;99.90;;;;;;4994789;28;20432;-70
2023/02/25 03:53:15;;;;;;;1.93;1.40;;;4.60;99.90;;;;;;5000503;28;20457;-71
2023/02/25 03:55:42;;;;;;;3.63;1.60;;;4.70;99.90;;;;;;5021279;28;20496;-70
2023/02/25 03:58:09;;;;;;;7.50;1.63;;;4.70;99.90;;;;;;5019239;28;20557;-70
2023/02/25 04:00:39;;;;;;;9.53;2.20;;;4.60;99.90;;;;;;5002561;28;20473;-71
2023/02/25 04:03:05;;;;;;;4.70;2.50;;;4.70;99.90;;;;;;5004587;28;20466;-71
2023/02/25 04:05:35;;;;;;;1.87;1.53;;;4.70;99.90;;;;;;5004398;28;20515;-70
2023/02/25 04:08:02;;;;;;;8.60;1.70;;;4.70;99.90;;;;;;4989554;28;21552;-71
2023/02/25 04:10:29;;;;;;;5.30;2.50;;;4.70;99.90;;;;;;5003500;28;20977;-71
2023/02/25 04:12:56;;;;;;;2.00;0.80;;;4.60;99.90;;;;;;5006025;28;20463;-71
2023/02/25 04:15:27;;;;;;;10.70;2.07;;;4.70;99.90;;;;;;5000263;28;20892;-71
2023/02/25 04:17:54;;;;;;;2.43;1.67;;;4.70;99.90;;;;;;5004635;28;20494;-70
2023/02/25 04:20:24;;;;;;;26.27;2.03;;;4.70;99.90;;;;;;4998770;28;20531;-71
2023/02/25 04:22:52;;;;;;;2.13;1.73;;;4.70;99.90;;;;;;5004186;28;20527;-70
2023/02/25 04:25:19;;;;;;;5.23;1.73;;;4.70;99.90;;;;;;4998890;28;20466;-71
2023/02/25 04:27:46;;;;;;;2.17;1.97;;;4.70;99.90;;;;;;5002033;28;20459;-71
2023/02/25 04:30:14;;;;;;;10.03;1.40;;;4.70;99.90;;;;;;5003653;28;21025;-72
2023/02/25 04:32:41;;;;;;;4.00;1.80;;;4.70;99.90;;;;;;5001621;28;20461;-72
2023/02/25 04:35:12;;;;;;;0.90;0.80;;;4.70;99.90;;;;;;5003884;28;20817;-71
2023/02/25 04:37:40;;;;;;;5.97;1.77;;;4.70;99.90;;;;;;5001960;28;20825;-72
2023/02/25 04:40:14;;;;;;;10.33;2.10;;;4.70;99.90;;;;;;5004106;28;20576;-72
2023/02/25 04:42:41;;;;;;;23.03;2.37;;;4.70;99.90;;;;;;5003082;28;20478;-72
2023/02/25 04:45:10;;;;;;;2.77;2.20;;;4.70;99.90;;;;;;5003255;28;20833;-72
2023/02/25 04:47:37;;;;;;;6.93;2.60;;;4.70;99.90;;;;;;4998642;28;20453;-71
2023/02/25 04:50:06;;;;;;;3.80;2.30;;;4.70;99.90;;;;;;5005984;28;21456;-72
2023/02/25 04:52:33;;;;;;;1.70;1.60;;;4.70;99.90;;;;;;5000612;28;20432;-72
2023/02/25 04:55:03;;;;;;;6.27;2.03;;;4.70;99.90;;;;;;5000439;28;20443;-71
2023/02/25 04:57:31;;;;;;;8.67;3.90;;;4.70;99.90;;;;;;5005276;28;20478;-71
2023/02/25 04:59:58;;;;;;;3.80;1.67;;;4.70;99.90;;;;;;5000701;28;20528;-72
2023/02/25 05:02:25;;;;;;;1.37;0.97;;;4.60;99.90;;;;;;5000563;28;20572;-71
2023/02/25 05:04:51;;;;;;;3.43;1.20;;;4.60;99.90;;;;;;4995421;28;20433;-71
2023/02/25 05:07:18;;;;;;;3.60;1.57;;;4.60;99.90;;;;;;4996185;28;20575;-72
2023/02/25 05:09:45;;;;;;;2.20;1.57;;;4.60;99.90;;;;;;5000261;28;20444;-71
2023/02/25 05:12:12;;;;;;;1.30;1.20;;;4.60;99.90;;;;;;4996792;28;20480;-72
2023/02/25 05:14:40;;;;;;;2.90;1.80;;;4.60;99.90;;;;;;4995879;28;20963;-71
2023/02/25 05:17:07;;;;;;;1.57;1.00;;;4.60;99.90;;;;;;4996030;28;20467;-72
2023/02/25 05:19:34;;;;;;;7.90;1.53;;;4.60;99.90;;;;;;4996506;28;20918;-72
2023/02/25 05:22:01;;;;;;;3.73;1.70;;;4.60;99.90;;;;;;4998457;28;20487;-72
2023/02/25 05:24:28;;;;;;;7.80;2.57;;;4.60;99.90;;;;;;4985161;28;20844;-72
2023/02/25 05:26:54;;;;;;;8.90;1.83;;;4.50;99.90;;;;;;5003789;28;20850;-71
2023/02/25 05:29:21;;;;;;;10.13;1.30;;;4.60;99.90;;;;;;5006498;28;20862;-71
2023/02/25 05:31:50;;;;;;;5.40;0.87;;;4.60;99.90;;;;;;4995761;28;20462;-71
2023/02/25 05:34:17;;;;;;;4.93;1.97;;;4.70;99.90;;;;;;4999699;28;20435;-72
2023/02/25 05:36:45;;;;;;;6.20;1.53;;;4.70;99.90;;;;;;5003486;28;20544;-71
2023/02/25 05:39:13;;;;;;;1.50;1.20;;;4.80;99.90;;;;;;5002101;28;20944;-71
2023/02/25 05:41:40;;;;;;;5.03;1.20;;;4.80;99.90;;;;;;4997902;28;20490;-72
2023/02/25 05:44:07;;;;;;;1.30;1.20;;;4.80;99.90;;;;;;4997121;28;20436;-72
2023/02/25 05:46:34;;;;;;;1.50;1.03;;;4.70;99.90;;;;;;5002744;28;20460;-72
2023/02/25 05:49:03;;;;;;;5.67;1.43;;;4.70;99.90;;;;;;5001990;28;20918;-72
2023/02/25 05:51:30;;;;;;;1.63;1.37;;;4.70;99.90;;;;;;5003368;28;20513;-72
2023/02/25 05:53:57;;;;;;;6.97;1.83;;;4.80;99.90;;;;;;5001319;28;20508;-71
2023/02/25 05:56:26;;;;;;;3.23;0.90;;;4.80;99.90;;;;;;5004691;28;20479;-72
2023/02/25 05:58:54;;;;;;;4.97;3.17;;;4.70;99.90;;;;;;5001572;28;20425;-71
2023/02/25 06:01:23;;;;;;;4.40;2.43;;;4.70;99.90;;;;;;4997722;28;20830;-71
2023/02/25 06:03:51;;;;;;;2.33;1.77;;;4.60;99.90;;;;;;5000648;28;20431;-71
2023/02/25 06:06:22;;;;;;;1.73;1.13;;;4.60;99.90;;;;;;5006388;28;20460;-72
2023/02/25 06:08:50;;;;;;;3.53;1.30;;;4.60;99.90;;;;;;4999635;28;20484;-72
2023/02/25 06:11:20;;;;;;;2.20;1.80;;;4.50;99.90;;;;;;5002805;28;20968;-71
2023/02/25 06:13:48;;;;;;;2.30;2.10;;;4.50;99.90;;;;;;4995558;28;20893;-72
2023/02/25 06:16:15;;;;;;;1.63;1.30;;;4.40;99.90;;;;;;5002503;28;20464;-71
2023/02/25 06:18:42;;;;;;;1.93;1.40;;;4.50;99.90;;;;;;4999562;28;20433;-72
2023/02/25 06:21:11;;;;;;;3.10;1.00;;;4.60;99.90;;;;;;5003175;28;20433;-72
2023/02/25 06:23:42;;;;;;;1.77;1.47;;;4.50;99.90;;;;;;5005006;28;20961;-72
2023/02/25 06:26:12;;;;;;;2.53;1.63;;;4.50;99.90;;;;;;5002529;28;21045;-72
2023/02/25 06:28:39;;;;;;;6.83;1.67;;;4.60;99.90;;;;;;5018179;28;20436;-71
2023/02/25 06:31:08;;;;;;;4.33;1.60;;;4.60;99.90;;;;;;5009107;28;20904;-71
2023/02/25 06:33:35;;;;;;;8.13;2.30;;;4.70;99.90;;;;;;5000133;28;20538;-71
2023/02/25 06:36:03;;;;;;;3.00;1.00;;;4.60;99.90;;;;;;4998235;28;20491;-71
2023/02/25 06:38:31;;;;;;;8.23;1.60;;;4.60;99.90;;;;;;5008255;28;20440;-72
2023/02/25 06:41:05;;;;;;;6.30;1.60;;;4.70;99.90;;;;;;5001876;28;20467;-72
2023/02/25 06:43:31;;;;;;;2.13;1.37;;;4.70;99.90;;;;;;5007838;28;21018;-72
2023/02/25 06:45:58;;;;;;;4.73;1.33;;;4.70;99.90;;;;;;4998607;28;20447;-71
2023/02/25 06:48:25;;;;;;;2.90;0.80;;;4.80;99.90;;;;;;5003203;28;20439;-71
2023/02/25 06:50:52;;;;;;;4.37;1.43;;;4.80;99.90;;;;;;4998005;28;20455;-71
2023/02/25 06:53:19;;;;;;;3.57;1.27;;;4.70;99.90;;;;;;4998556;28;21019;-71
2023/02/25 06:55:46;;;;;;;8.83;2.93;;;4.80;99.90;;;;;;5001530;28;20557;-71
2023/02/25 06:58:15;;;;;;;2.20;1.27;;;4.70;99.90;;;;;;4999234;28;20921;-72
2023/02/25 07:00:42;;;;;;;2.77;1.33;;;4.80;99.90;;;;;;5003470;28;20434;-72
2023/02/25 07:03:11;;;;;;;2.30;1.23;;;4.90;99.90;;;;;;4996242;28;20509;-72
2023/02/25 07:05:38;;;;;;;1.20;1.00;;;4.90;99.90;;;;;;5001209;28;20968;-71
2023/02/25 07:08:08;;;;;;;10.90;1.90;;;4.90;99.90;;;;;;5005169;28;20482;-71
2023/02/25 07:10:35;;;;;;;1.47;1.30;;;5.00;99.90;;;;;;4996334;28;20442;-71
2023/02/25 07:13:02;;;;;;;8.70;1.20;;;5.10;99.90;;;;;;5000692;28;20437;-72
2023/02/25 07:15:30;;;;;;;2.23;1.80;;;5.10;99.90;;;;;;4997908;28;20461;-72
2023/02/25 07:17:57;;;;;;;9.23;2.30;;;4.90;99.90;;;;;;5005314;28;20534;-72
2023/02/25 07:20:24;;;;;;;2.00;1.40;;;5.00;99.90;;;;;;5002077;28;20476;-72
2023/02/25 07:22:51;;;;;;;7.00;3.17;;;5.10;99.90;;;;;;5001251;28;20519;-71
2023/02/25 07:25:18;;;;;;;4.50;1.27;;;5.00;99.90;;;;;;5000057;28;20473;-72
2023/02/25 07:27:45;;;;;;;16.80;2.23;;;5.10;99.90;;;;;;4997600;28;20563;-71
2023/02/25 07:30:13;;;;;;;2.17;2.00;;;5.10;99.90;;;;;;5002229;28;20522;-70
2023/02/25 07:32:42;;;;;;;5.07;1.93;;;5.00;99.90;;;;;;5003780;28;20431;-72
2023/02/25 07:35:10;;;;;;;3.17;1.40;;;5.00;99.90;;;;;;5007945;28;20493;-71
2023/02/25 07:37:37;;;;;;;6.70;1.77;;;4.90;99.90;;;;;;4998535;28;20567;-71
2023/02/25 07:40:11;;;;;;;1.77;1.17;;;4.90;99.90;;;;;;4964599;28;20443;-71
2023/02/25 07:42:40;;;;;;;1.83;0.90;;;5.00;99.90;;;;;;4980111;28;20586;-71
2023/02/25 07:45:09;;;;;;;3.60;1.73;;;5.00;99.90;;;;;;4997347;28;20459;-71
2023/02/25 07:47:36;;;;;;;6.00;2.10;;;5.10;99.90;;;;;;5000334;28;20478;-71
2023/02/25 07:50:05;;;;;;;8.63;1.70;;;5.20;99.90;;;;;;4996034;28;20499;-71
2023/02/25 07:52:32;;;;;;;3.47;2.30;;;5.20;99.90;;;;;;4997573;28;20571;-71
2023/02/25 07:54:59;;;;;;;5.07;4.20;;;5.10;99.90;;;;;;4997126;28;20489;-72
2023/02/25 07:57:27;;;;;;;2.37;2.20;;;5.10;99.90;;;;;;4995125;28;20456;-72
2023/02/25 07:59:54;;;;;;;1.93;1.13;;;5.10;99.90;;;;;;5001330;28;20463;-71
2023/02/25 08:02:21;;;;;;;2.60;2.40;;;5.10;99.90;;;;;;4994152;28;20483;-71
2023/02/25 08:04:48;;;;;;;10.00;2.50;;;5.30;99.90;;;;;;4997593;28;20543;-71
2023/02/25 08:07:16;;;;;;;3.80;1.50;;;5.30;99.90;;;;;;4993426;28;20455;-72
2023/02/25 08:09:43;;;;;;;7.43;3.53;;;5.40;99.90;;;;;;4995455;28;20471;-72
2023/02/25 08:12:10;;;;;;;5.33;2.60;;;5.40;99.90;;;;;;4950893;28;20477;-72
2023/02/25 08:14:38;;;;;;;5.87;2.40;;;5.40;99.90;;;;;;4991509;28;20460;-72
2023/02/25 08:17:05;;;;;;;8.10;3.63;;;5.70;99.90;;;;;;4962525;28;20528;-71
2023/02/25 08:19:32;;;;;;;5.93;2.57;;;6.00;99.90;;;;;;4996660;28;20597;-71
2023/02/25 08:21:59;;;;;;;21.40;12.80;;;6.20;99.90;;;;;;4991142;28;20608;-72
2023/02/25 08:24:27;;;;;;;19.13;10.23;;;6.50;99.90;;;;;;5000009;28;20846;-72
2023/02/25 08:26:54;;;;;;;6.90;3.40;;;6.70;99.90;;;;;;4997166;28;20456;-71
2023/02/25 08:29:22;;;;;;;8.90;4.30;;;6.70;99.90;;;;;;4998952;28;20454;-71
2023/02/25 08:31:50;;;;;;;5.50;3.37;;;6.90;99.90;;;;;;4996546;28;20545;-72
2023/02/25 08:34:17;;;;;;;7.50;2.17;;;6.90;99.90;;;;;;5005391;28;20457;-71
2023/02/25 08:36:45;;;;;;;8.23;2.70;;;6.80;99.90;;;;;;5000213;28;20484;-71
2023/02/25 08:39:12;;;;;;;2.17;1.97;;;7.00;99.90;;;;;;4999797;28;20503;-73
2023/02/25 08:41:41;;;;;;;8.83;3.30;;;7.00;99.90;;;;;;4997953;28;20458;-72
2023/02/25 08:44:08;;;;;;;6.57;2.40;;;7.00;99.90;;;;;;5007833;28;20477;-73
2023/02/25 08:46:36;;;;;;;6.03;2.33;;;6.90;99.90;;;;;;4996297;28;21242;-70
2023/02/25 08:49:05;;;;;;;12.33;3.17;;;7.00;99.90;;;;;;4995765;28;20470;-72
2023/02/25 08:51:37;;;;;;;3.53;1.80;;;6.80;99.90;;;;;;5005479;28;20457;-71
2023/02/25 08:54:06;;;;;;;1.70;1.60;;;6.70;99.90;;;;;;5002278;28;20461;-69
2023/02/25 08:56:35;;;;;;;2.00;1.50;;;6.60;99.90;;;;;;5014659;28;20486;-71
2023/02/25 08:59:03;;;;;;;1.67;1.30;;;6.40;99.90;;;;;;5025549;28;20453;-72
2023/02/25 09:01:43;;;;;;;8.17;3.50;;;6.40;99.90;;;;;;5004822;28;20459;-71
2023/02/25 09:04:10;;;;;;;2.70;1.57;;;6.20;99.90;;;;;;5003367;28;20495;-71
2023/02/25 09:06:37;;;;;;;3.30;1.50;;;6.10;99.90;;;;;;5006633;28;20482;-71
2023/02/25 09:09:05;;;;;;;1.70;1.37;;;5.90;99.90;;;;;;5014519;28;20445;-71
2023/02/25 09:11:33;;;;;;;1.30;1.00;;;5.80;99.90;;;;;;5000280;28;21073;-69
2023/02/25 09:14:00;;;;;;;1.00;0.90;;;5.60;99.90;;;;;;5001380;28;20471;-71
2023/02/25 09:16:30;;;;;;;1.87;1.30;;;5.70;99.90;;;;;;5001341;28;20502;-71
2023/02/25 09:18:58;;;;;;;2.20;1.07;;;5.60;99.90;;;;;;5017470;28;20552;-70
2023/02/25 09:21:25;;;;;;;8.03;2.67;;;5.70;99.90;;;;;;5001650;28;20524;-71
2023/02/25 09:23:52;;;;;;;2.50;1.20;;;6.00;99.90;;;;;;5006448;28;20481;-71
2023/02/25 09:26:19;;;;;;;2.10;1.43;;;6.60;99.90;;;;;;5006392;28;20509;-71
2023/02/25 09:28:47;;;;;;;3.00;1.30;;;7.70;99.90;;;;;;4971132;28;20465;-70
2023/02/25 09:31:16;;;;;;;3.20;1.40;;;8.20;99.90;;;;;;5004065;28;20461;-71
2023/02/25 09:33:45;;;;;;;5.40;2.03;;;7.70;99.90;;;;;;5006103;28;20533;-71
2023/02/25 09:36:14;;;;;;;1.50;1.30;;;7.40;99.90;;;;;;4984698;28;21030;-71
2023/02/25 09:38:42;;;;;;;3.53;1.63;;;7.50;99.90;;;;;;5001236;28;20511;-70
2023/02/25 09:41:24;;;;;;;2.20;1.33;;;7.20;99.90;;;;;;5001962;28;20801;-71
2023/02/25 09:44:04;;;;;;;2.60;2.13;;;7.10;99.90;;;;;;4999563;28;20481;-72
2023/02/25 09:46:34;;;;;;;2.20;1.73;;;7.00;99.90;;;;;;5003829;28;20537;-72
2023/02/25 09:49:08;;;;;;;2.23;1.30;;;7.00;99.90;;;;;;5000721;28;20965;-71
2023/02/25 09:51:39;;;;;;;1.50;1.20;;;7.00;99.90;;;;;;4998689;28;20529;-71
2023/02/25 09:54:16;;;;;;;3.53;1.20;;;7.10;99.90;;;;;;5004240;28;20446;-70
2023/02/25 09:56:43;;;;;;;3.47;1.10;;;7.60;99.90;;;;;;4996402;28;20481;-71
2023/02/25 09:59:15;;;;;;;2.60;1.63;;;8.20;99.90;;;;;;4988571;28;20907;-72
2023/02/25 10:01:49;;;;;;;1.67;1.37;;;8.40;99.90;;;;;;4998199;28;20458;-72
2023/02/25 10:04:24;;;;;;;4.50;2.30;;;8.60;99.90;;;;;;5006380;28;20487;-71
2023/02/25 10:06:54;;;;;;;1.00;0.80;;;8.60;99.90;;;;;;4999288;28;20865;-70
2023/02/25 10:09:30;;;;;;;1.10;0.90;;;8.50;99.90;;;;;;5001540;28;20516;-71
2023/02/25 10:12:08;;;;;;;1.20;0.70;;;6.90;99.90;;;;;;4998027;28;20436;-72
2023/02/25 10:15:00;;;;;;;1.30;1.00;;;5.80;99.90;;;;;;4966135;28;20454;-73
2023/02/25 10:17:42;;;;;;;1.40;1.20;;;5.10;99.90;;;;;;4996821;28;20498;-72
2023/02/25 10:20:37;;;;;;;4.50;1.27;;;5.30;99.90;;;;;;5002111;28;20501;-71
2023/02/25 10:23:13;;;;;;;1.40;0.90;;;5.50;99.90;;;;;;5002513;28;20464;-71
2023/02/25 10:25:45;;;;;;;1.40;1.10;;;6.00;99.90;;;;;;5010214;28;20495;-71
2023/02/25 10:28:17;;;;;;;3.00;1.10;;;6.80;99.90;;;;;;5004154;28;20941;-72
2023/02/25 10:30:50;;;;;;;6.63;1.50;;;8.00;99.90;;;;;;5005446;28;20462;-72
2023/02/25 10:33:21;;;;;;;1.57;0.90;;;8.30;99.90;;;;;;5002230;28;21746;-71
2023/02/25 10:35:54;;;;;;;1.00;0.80;;;9.10;99.90;;;;;;4999321;28;20544;-71
2023/02/25 10:38:21;;;;;;;3.20;1.50;;;9.60;99.90;;;;;;4998874;28;20516;-71
2023/02/25 10:40:48;;;;;;;1.10;0.70;;;9.60;99.90;;;;;;5006929;28;20544;-72
2023/02/25 10:43:20;;;;;;;1.50;0.90;;;10.10;99.90;;;;;;5006303;28;20531;-69
2023/02/25 10:45:52;;;;;;;1.20;0.80;;;10.60;99.90;;;;;;4998533;28;20458;-71
2023/02/25 10:48:22;;;;;;;1.27;1.10;;;10.60;99.90;;;;;;5001727;28;20461;-70
2023/02/25 10:51:05;;;;;;;2.43;1.90;;;11.10;99.90;;;;;;5005220;28;20600;-70
2023/02/25 10:53:33;;;;;;;1.90;1.33;;;10.70;99.90;;;;;;4997368;28;20464;-71
2023/02/25 10:56:02;;;;;;;1.20;0.90;;;10.50;99.90;;;;;;4997590;28;20522;-72
2023/02/25 10:58:35;;;;;;;11.37;2.70;;;11.10;99.90;;;;;;4995954;28;20540;-71
2023/02/25 11:01:06;;;;;;;1.20;1.10;;;10.40;99.90;;;;;;4989586;28;20550;-70
2023/02/25 11:03:41;;;;;;;2.57;1.33;;;9.70;99.90;;;;;;4999114;28;20476;-71
2023/02/25 11:06:14;;;;;;;7.43;1.37;;;8.60;99.90;;;;;;5003702;28;20575;-71
2023/02/25 11:08:43;;;;;;;2.27;1.30;;;8.10;99.90;;;;;;5004859;28;20511;-71
2023/02/25 11:11:16;;;;;;;1.93;1.40;;;7.90;99.90;;;;;;5003865;28;20973;-71
2023/02/25 11:13:54;;;;;;;4.10;1.77;;;8.00;99.90;;;;;;4996983;28;20433;-71
2023/02/25 11:16:22;;;;;;;2.23;1.33;;;9.50;99.90;;;;;;4999853;28;21031;-72
2023/02/25 11:18:54;;;;;;;1.83;1.50;;;11.70;99.90;;;;;;4998060;28;20470;-72
2023/02/25 11:21:34;;;;;;;4.80;1.80;;;13.20;99.90;;;;;;5004491;28;20557;-72
2023/02/25 11:24:05;;;;;;;1.87;1.63;;;13.90;99.90;;;;;;5002628;28;20462;-71
2023/02/25 11:26:34;;;;;;;1.47;1.37;;;14.50;99.90;;;;;;5008492;28;20589;-71
2023/02/25 11:29:05;;;;;;;4.40;1.10;;;14.50;99.90;;;;;;5019555;28;20472;-71
2023/02/25 11:31:36;;;;;;;5.80;1.70;;;13.20;99.90;;;;;;5020725;28;20454;-71
2023/02/25 11:34:07;;;;;;;3.20;2.20;;;11.30;99.90;;;;;;5006250;28;20481;-71
2023/02/25 11:36:37;;;;;;;2.70;1.10;;;9.60;99.90;;;;;;5004019;28;21379;-70
2023/02/25 11:39:15;;;;;;;1.10;0.90;;;8.70;99.90;;;;;;5001657;28;21196;-71
2023/02/25 11:41:43;;;;;;;1.90;1.50;;;8.10;99.90;;;;;;5001636;28;20427;-71
2023/02/25 11:44:20;;;;;;;6.27;2.83;;;7.70;99.90;;;;;;4997554;28;20575;-70
2023/02/25 11:46:55;;;;;;;3.43;1.57;;;7.30;99.90;;;;;;5002124;28;20523;-72
2023/02/25 11:49:30;;;;;;;1.57;1.40;;;7.10;99.90;;;;;;5000267;28;20518;-71
2023/02/25 11:52:08;;;;;;;1.10;0.83;;;7.10;99.90;;;;;;5004162;28;20463;-72
2023/02/25 11:54:46;;;;;;;1.10;1.00;;;7.50;99.90;;;;;;5005654;28;21182;-71
2023/02/25 11:57:21;;;;;;;2.47;1.10;;;7.60;99.90;;;;;;5004071;28;20539;-71
2023/02/25 12:00:03;;;;;;;1.10;0.80;;;7.40;99.90;;;;;;4999318;28;20457;-71
2023/02/25 12:02:43;;;;;;;6.50;1.50;;;7.70;99.90;;;;;;5007891;28;20536;-72
2023/02/25 12:05:42;;;;;;;10.53;1.57;;;9.40;99.90;;;;;;5003560;28;20477;-70
2023/02/25 12:08:34;;;;;;;2.87;1.60;;;10.90;99.90;;;;;;4978858;28;20535;-70
2023/02/25 12:11:37;;;;;;;2.90;1.03;;;11.50;99.90;;;;;;4998042;28;20838;-71
2023/02/25 12:14:49;;;;;;;2.70;1.70;;;11.90;99.30;;;;;;5005129;28;20545;-71
2023/02/25 12:17:55;;;;;;;4.70;1.73;;;12.50;98.90;;;;;;4998694;28;20561;-72
2023/02/25 12:21:02;;;;;;;4.10;2.90;;;12.00;93.60;;;;;;5007461;28;20555;-71
2023/02/25 12:24:14;;;;;;;2.23;1.60;;;9.70;95.20;;;;;;5007388;28;20478;-70
2023/02/25 12:27:11;;;;;;;1.37;1.23;;;8.40;97.00;;;;;;5008508;28;20797;-70
2023/02/25 12:30:02;;;;;;;2.27;1.50;;;8.20;97.60;;;;;;4969107;28;20452;-72
2023/02/25 12:32:51;;;;;;;1.50;1.23;;;9.30;97.50;;;;;;5020710;28;20449;-71
2023/02/25 12:35:39;;;;;;;2.50;2.13;;;10.10;95.90;;;;;;5010005;28;20468;-72
2023/02/25 12:38:41;;;;;;;3.90;1.07;;;11.30;96.40;;;;;;5010659;28;20453;-71
2023/02/25 12:41:30;;;;;;;5.00;1.93;;;12.00;90.90;;;;;;4997135;28;20464;-71
2023/02/25 12:44:13;;;;;;;11.43;1.60;;;12.40;88.90;;;;;;5000451;28;20470;-71
2023/02/25 12:46:53;;;;;;;10.13;1.77;;;12.30;90.00;;;;;;5001209;28;20556;-71
2023/02/25 12:49:53;;;;;;;2.73;1.40;;;11.60;89.00;;;;;;5001644;28;20545;-71
2023/02/25 12:52:41;;;;;;;1.30;1.00;;;11.70;88.00;;;;;;4998237;28;20515;-71
2023/02/25 12:55:30;;;;;;;1.80;1.20;;;11.90;87.00;;;;;;5002003;28;20470;-71
2023/02/25 12:58:32;;;;;;;2.40;1.10;;;11.90;90.30;;;;;;5003604;28;20486;-71
2023/02/25 13:01:26;;;;;;;1.67;1.07;;;11.20;87.20;;;;;;4998296;28;20989;-71
2023/02/25 13:04:33;;;;;;;1.60;1.00;;;11.00;87.90;;;;;;5003283;28;21989;-71
2023/02/25 13:07:32;;;;;;;1.10;0.87;;;11.50;87.70;;;;;;4999245;28;21029;-72
2023/02/25 13:10:17;;;;;;;7.60;2.03;;;11.60;85.20;;;;;;4992584;28;20549;-69
2023/02/25 13:12:59;;;;;;;1.60;1.30;;;11.50;84.80;;;;;;4999116;28;20460;-70
2023/02/25 13:15:36;;;;;;;2.63;1.10;;;12.50;82.40;;;;;;5004178;28;20504;-71
2023/02/25 13:18:15;;;;;;;5.10;1.27;;;13.90;82.10;;;;;;5002131;28;21436;-70
2023/02/25 13:21:12;;;;;;;1.47;0.97;;;14.40;78.00;;;;;;5000373;28;20497;-71